sensor_id;sensor_type;location;lat;lon;timestamp;P1;durP1;ratioP1;P2;durP2;ratioP2
2338;SDS011;1180;51.438;6.978;2023-05-08T00:00:17;12.93;;;10.67;;
2338;SDS011;1180;51.438;6.978;2023-05-08T00:02:42;14.77;;;13.37;;
2338;SDS011;1180;51.438;6.978;2023-05-08T00:05:08;12.60;;;11.30;;
2338;SDS011;1180;51.438;6.978;2023-05-08T00:07:34;13.90;;;12.33;;
2338;SDS011;1180;51.438;6.978;2023-05-08T00:10:01;14.73;;;13.20;;
2338;SDS011;1180;51.438;6.978;2023-05-08T00:12:27;13.23;;;12.13;;
2338;SDS011;1180;51.438;6.978;2023-05-08T00:14:52;12.77;;;11.47;;
2338;SDS011;1180;51.438;6.978;2023-05-08T00:17:17;15.10;;;13.60;;
2338;SDS011;1180;51.438;6.978;2023-05-08T00:19:43;14.03;;;12.67;;
2338;SDS011;1180;51.438;6.978;2023-05-08T00:22:08;15.33;;;13.87;;
2338;SDS011;1180;51.438;6.978;2023-05-08T00:24:34;14.60;;;13.27;;
2338;SDS011;1180;51.438;6.978;2023-05-08T00:27:00;16.30;;;14.57;;
2338;SDS011;1180;51.438;6.978;2023-05-08T00:29:25;15.40;;;13.80;;
2338;SDS011;1180;51.438;6.978;2023-05-08T00:31:50;18.53;;;14.17;;
2338;SDS011;1180;51.438;6.978;2023-05-08T00:34:16;17.40;;;15.60;;
2338;SDS011;1180;51.438;6.978;2023-05-08T00:36:41;17.27;;;15.57;;
2338;SDS011;1180;51.438;6.978;2023-05-08T00:39:07;16.70;;;14.47;;
2338;SDS011;1180;51.438;6.978;2023-05-08T00:41:32;17.30;;;14.77;;
2338;SDS011;1180;51.438;6.978;2023-05-08T00:43:58;16.60;;;14.97;;
2338;SDS011;1180;51.438;6.978;2023-05-08T00:46:23;16.43;;;14.73;;
2338;SDS011;1180;51.438;6.978;2023-05-08T00:48:49;18.23;;;16.47;;
2338;SDS011;1180;51.438;6.978;2023-05-08T00:51:15;16.83;;;15.03;;
2338;SDS011;1180;51.438;6.978;2023-05-08T00:53:41;16.87;;;15.37;;
2338;SDS011;1180;51.438;6.978;2023-05-08T00:56:09;17.07;;;15.37;;
2338;SDS011;1180;51.438;6.978;2023-05-08T00:58:37;15.93;;;14.53;;
2338;SDS011;1180;51.438;6.978;2023-05-08T01:01:03;16.00;;;14.43;;
2338;SDS011;1180;51.438;6.978;2023-05-08T01:03:29;16.67;;;15.00;;
2338;SDS011;1180;51.438;6.978;2023-05-08T01:05:57;16.37;;;14.60;;
2338;SDS011;1180;51.438;6.978;2023-05-08T01:08:24;16.43;;;14.37;;
2338;SDS011;1180;51.438;6.978;2023-05-08T01:13:27;16.33;;;14.83;;
2338;SDS011;1180;51.438;6.978;2023-05-08T01:16:15;16.77;;;15.07;;
2338;SDS011;1180;51.438;6.978;2023-05-08T01:18:51;16.47;;;14.87;;
2338;SDS011;1180;51.438;6.978;2023-05-08T01:32:59;17.23;;;15.60;;
2338;SDS011;1180;51.438;6.978;2023-05-08T01:35:32;16.90;;;15.20;;
2338;SDS011;1180;51.438;6.978;2023-05-08T01:38:26;19.30;;;17.27;;
2338;SDS011;1180;51.438;6.978;2023-05-08T01:41:07;18.40;;;16.60;;
2338;SDS011;1180;51.438;6.978;2023-05-08T01:46:08;19.07;;;17.20;;
2338;SDS011;1180;51.438;6.978;2023-05-08T01:48:41;18.27;;;16.57;;
2338;SDS011;1180;51.438;6.978;2023-05-08T01:51:16;17.20;;;15.50;;
2338;SDS011;1180;51.438;6.978;2023-05-08T01:53:46;18.57;;;16.80;;
2338;SDS011;1180;51.438;6.978;2023-05-08T01:56:16;15.70;;;14.10;;
2338;SDS011;1180;51.438;6.978;2023-05-08T01:58:45;17.70;;;16.00;;
2338;SDS011;1180;51.438;6.978;2023-05-08T02:01:13;17.53;;;15.83;;
2338;SDS011;1180;51.438;6.978;2023-05-08T02:03:42;18.60;;;16.67;;
2338;SDS011;1180;51.438;6.978;2023-05-08T02:06:09;18.87;;;17.03;;
2338;SDS011;1180;51.438;6.978;2023-05-08T02:08:38;18.33;;;16.43;;
2338;SDS011;1180;51.438;6.978;2023-05-08T02:11:05;18.43;;;16.67;;
2338;SDS011;1180;51.438;6.978;2023-05-08T02:13:33;17.00;;;15.40;;
2338;SDS011;1180;51.438;6.978;2023-05-08T02:16:00;19.00;;;15.90;;
2338;SDS011;1180;51.438;6.978;2023-05-08T02:18:27;19.77;;;17.73;;
2338;SDS011;1180;51.438;6.978;2023-05-08T02:20:56;19.43;;;17.43;;
2338;SDS011;1180;51.438;6.978;2023-05-08T02:23:24;18.20;;;16.27;;
2338;SDS011;1180;51.438;6.978;2023-05-08T02:25:51;17.20;;;15.43;;
2338;SDS011;1180;51.438;6.978;2023-05-08T02:28:19;17.10;;;15.50;;
2338;SDS011;1180;51.438;6.978;2023-05-08T02:30:47;16.80;;;15.10;;
2338;SDS011;1180;51.438;6.978;2023-05-08T02:33:14;18.10;;;16.30;;
2338;SDS011;1180;51.438;6.978;2023-05-08T02:35:42;18.57;;;16.73;;
2338;SDS011;1180;51.438;6.978;2023-05-08T02:38:09;20.53;;;17.37;;
2338;SDS011;1180;51.438;6.978;2023-05-08T02:40:41;17.90;;;16.10;;
2338;SDS011;1180;51.438;6.978;2023-05-08T02:43:11;18.73;;;16.80;;
2338;SDS011;1180;51.438;6.978;2023-05-08T02:45:42;18.80;;;16.90;;
2338;SDS011;1180;51.438;6.978;2023-05-08T02:53:43;17.10;;;15.30;;
2338;SDS011;1180;51.438;6.978;2023-05-08T02:56:17;19.20;;;17.13;;
2338;SDS011;1180;51.438;6.978;2023-05-08T02:59:05;17.47;;;15.67;;
2338;SDS011;1180;51.438;6.978;2023-05-08T03:01:52;17.47;;;15.87;;
2338;SDS011;1180;51.438;6.978;2023-05-08T03:04:55;19.17;;;16.67;;
2338;SDS011;1180;51.438;6.978;2023-05-08T03:07:27;15.70;;;14.17;;
2338;SDS011;1180;51.438;6.978;2023-05-08T03:10:00;19.50;;;17.60;;
2338;SDS011;1180;51.438;6.978;2023-05-08T03:12:27;16.53;;;14.83;;
2338;SDS011;1180;51.438;6.978;2023-05-08T03:17:28;16.77;;;15.13;;
2338;SDS011;1180;51.438;6.978;2023-05-08T03:19:58;16.90;;;15.10;;
2338;SDS011;1180;51.438;6.978;2023-05-08T03:22:29;14.80;;;13.40;;
2338;SDS011;1180;51.438;6.978;2023-05-08T03:24:58;16.80;;;15.10;;
2338;SDS011;1180;51.438;6.978;2023-05-08T03:27:27;18.30;;;16.50;;
2338;SDS011;1180;51.438;6.978;2023-05-08T03:29:53;17.00;;;15.20;;
2338;SDS011;1180;51.438;6.978;2023-05-08T03:32:20;17.57;;;15.67;;
2338;SDS011;1180;51.438;6.978;2023-05-08T03:34:48;16.80;;;15.10;;
2338;SDS011;1180;51.438;6.978;2023-05-08T03:37:14;18.13;;;16.23;;
2338;SDS011;1180;51.438;6.978;2023-05-08T03:39:40;18.33;;;16.53;;
2338;SDS011;1180;51.438;6.978;2023-05-08T03:42:06;16.47;;;14.73;;
2338;SDS011;1180;51.438;6.978;2023-05-08T03:44:35;16.67;;;14.87;;
2338;SDS011;1180;51.438;6.978;2023-05-08T03:47:02;18.93;;;15.70;;
2338;SDS011;1180;51.438;6.978;2023-05-08T03:49:30;18.70;;;16.90;;
2338;SDS011;1180;51.438;6.978;2023-05-08T03:51:57;16.27;;;14.60;;
2338;SDS011;1180;51.438;6.978;2023-05-08T03:54:23;16.63;;;14.93;;
2338;SDS011;1180;51.438;6.978;2023-05-08T03:56:50;16.60;;;14.90;;
2338;SDS011;1180;51.438;6.978;2023-05-08T03:59:20;16.03;;;14.37;;
2338;SDS011;1180;51.438;6.978;2023-05-08T04:05:29;15.63;;;14.00;;
2338;SDS011;1180;51.438;6.978;2023-05-08T04:08:05;16.40;;;14.67;;
2338;SDS011;1180;51.438;6.978;2023-05-08T04:10:47;16.73;;;15.03;;
2338;SDS011;1180;51.438;6.978;2023-05-08T04:13:40;16.20;;;14.50;;
2338;SDS011;1180;51.438;6.978;2023-05-08T04:16:15;16.37;;;13.93;;
2338;SDS011;1180;51.438;6.978;2023-05-08T04:18:46;14.87;;;13.40;;
2338;SDS011;1180;51.438;6.978;2023-05-08T04:21:14;16.17;;;14.57;;
2338;SDS011;1180;51.438;6.978;2023-05-08T04:23:45;17.17;;;15.47;;
2338;SDS011;1180;51.438;6.978;2023-05-08T04:26:14;17.20;;;15.50;;
2338;SDS011;1180;51.438;6.978;2023-05-08T04:28:41;15.97;;;14.30;;
2338;SDS011;1180;51.438;6.978;2023-05-08T04:31:08;18.40;;;16.40;;
2338;SDS011;1180;51.438;6.978;2023-05-08T04:33:34;15.57;;;14.07;;
2338;SDS011;1180;51.438;6.978;2023-05-08T04:36:00;15.43;;;13.93;;
2338;SDS011;1180;51.438;6.978;2023-05-08T04:38:26;15.80;;;14.30;;
2338;SDS011;1180;51.438;6.978;2023-05-08T04:40:53;13.27;;;12.10;;
2338;SDS011;1180;51.438;6.978;2023-05-08T04:43:18;14.30;;;12.90;;
2338;SDS011;1180;51.438;6.978;2023-05-08T04:45:44;13.30;;;12.00;;
2338;SDS011;1180;51.438;6.978;2023-05-08T04:48:09;15.33;;;13.83;;
2338;SDS011;1180;51.438;6.978;2023-05-08T04:50:34;14.30;;;12.90;;
2338;SDS011;1180;51.438;6.978;2023-05-08T04:53:00;12.40;;;11.20;;
2338;SDS011;1180;51.438;6.978;2023-05-08T04:55:25;13.03;;;11.73;;
2338;SDS011;1180;51.438;6.978;2023-05-08T04:57:50;12.27;;;11.07;;
2338;SDS011;1180;51.438;6.978;2023-05-08T05:00:16;17.60;;;10.97;;
2338;SDS011;1180;51.438;6.978;2023-05-08T05:02:41;10.13;;;9.13;;
2338;SDS011;1180;51.438;6.978;2023-05-08T05:05:07;10.20;;;9.20;;
2338;SDS011;1180;51.438;6.978;2023-05-08T05:07:32;11.13;;;10.00;;
2338;SDS011;1180;51.438;6.978;2023-05-08T05:09:58;8.73;;;7.93;;
2338;SDS011;1180;51.438;6.978;2023-05-08T05:12:24;10.00;;;9.10;;
2338;SDS011;1180;51.438;6.978;2023-05-08T05:14:50;8.40;;;7.63;;
2338;SDS011;1180;51.438;6.978;2023-05-08T05:17:15;9.90;;;9.07;;
2338;SDS011;1180;51.438;6.978;2023-05-08T05:19:41;10.87;;;9.77;;
2338;SDS011;1180;51.438;6.978;2023-05-08T05:22:06;10.07;;;8.97;;
2338;SDS011;1180;51.438;6.978;2023-05-08T05:24:32;10.40;;;9.37;;
2338;SDS011;1180;51.438;6.978;2023-05-08T05:27:00;9.63;;;8.70;;
2338;SDS011;1180;51.438;6.978;2023-05-08T05:29:26;9.77;;;8.87;;
2338;SDS011;1180;51.438;6.978;2023-05-08T05:31:52;9.50;;;8.60;;
2338;SDS011;1180;51.438;6.978;2023-05-08T05:34:17;8.80;;;8.00;;
2338;SDS011;1180;51.438;6.978;2023-05-08T05:36:43;9.17;;;8.30;;
2338;SDS011;1180;51.438;6.978;2023-05-08T05:39:09;10.90;;;9.00;;
2338;SDS011;1180;51.438;6.978;2023-05-08T05:41:34;8.80;;;7.90;;
2338;SDS011;1180;51.438;6.978;2023-05-08T05:44:00;8.07;;;7.37;;
2338;SDS011;1180;51.438;6.978;2023-05-08T05:46:25;8.83;;;8.13;;
2338;SDS011;1180;51.438;6.978;2023-05-08T05:48:56;8.97;;;8.17;;
2338;SDS011;1180;51.438;6.978;2023-05-08T05:51:22;7.83;;;7.07;;
2338;SDS011;1180;51.438;6.978;2023-05-08T05:53:48;8.77;;;7.97;;
2338;SDS011;1180;51.438;6.978;2023-05-08T05:56:13;9.27;;;8.40;;
2338;SDS011;1180;51.438;6.978;2023-05-08T05:58:39;9.03;;;8.13;;
2338;SDS011;1180;51.438;6.978;2023-05-08T06:01:08;7.70;;;7.10;;
2338;SDS011;1180;51.438;6.978;2023-05-08T06:03:34;10.77;;;7.00;;
2338;SDS011;1180;51.438;6.978;2023-05-08T06:06:00;7.63;;;6.93;;
2338;SDS011;1180;51.438;6.978;2023-05-08T06:08:26;7.17;;;6.57;;
2338;SDS011;1180;51.438;6.978;2023-05-08T06:10:52;6.50;;;6.00;;
2338;SDS011;1180;51.438;6.978;2023-05-08T06:13:18;6.80;;;6.20;;
2338;SDS011;1180;51.438;6.978;2023-05-08T06:15:44;8.13;;;7.47;;
2338;SDS011;1180;51.438;6.978;2023-05-08T06:18:09;6.90;;;6.40;;
2338;SDS011;1180;51.438;6.978;2023-05-08T06:20:38;6.73;;;6.13;;
2338;SDS011;1180;51.438;6.978;2023-05-08T06:23:04;7.53;;;6.60;;
2338;SDS011;1180;51.438;6.978;2023-05-08T06:25:30;7.03;;;6.33;;
2338;SDS011;1180;51.438;6.978;2023-05-08T06:27:56;7.93;;;7.13;;
2338;SDS011;1180;51.438;6.978;2023-05-08T06:30:21;5.53;;;5.03;;
2338;SDS011;1180;51.438;6.978;2023-05-08T06:32:47;8.63;;;7.30;;
2338;SDS011;1180;51.438;6.978;2023-05-08T06:35:13;6.80;;;6.10;;
2338;SDS011;1180;51.438;6.978;2023-05-08T06:37:44;8.07;;;5.87;;
2338;SDS011;1180;51.438;6.978;2023-05-08T06:40:10;6.27;;;5.73;;
2338;SDS011;1180;51.438;6.978;2023-05-08T06:42:36;6.93;;;6.23;;
2338;SDS011;1180;51.438;6.978;2023-05-08T06:45:02;7.10;;;6.50;;
2338;SDS011;1180;51.438;6.978;2023-05-08T06:47:29;9.50;;;6.10;;
2338;SDS011;1180;51.438;6.978;2023-05-08T06:49:54;6.17;;;5.57;;
2338;SDS011;1180;51.438;6.978;2023-05-08T06:52:19;6.30;;;5.70;;
2338;SDS011;1180;51.438;6.978;2023-05-08T06:54:45;6.23;;;5.73;;
2338;SDS011;1180;51.438;6.978;2023-05-08T06:57:11;5.70;;;5.20;;
2338;SDS011;1180;51.438;6.978;2023-05-08T06:59:38;6.43;;;5.80;;
2338;SDS011;1180;51.438;6.978;2023-05-08T07:02:04;6.20;;;5.60;;
2338;SDS011;1180;51.438;6.978;2023-05-08T07:04:29;5.33;;;4.93;;
2338;SDS011;1180;51.438;6.978;2023-05-08T07:06:55;6.17;;;5.60;;
2338;SDS011;1180;51.438;6.978;2023-05-08T07:09:20;6.83;;;6.23;;
2338;SDS011;1180;51.438;6.978;2023-05-08T07:11:45;6.43;;;5.83;;
2338;SDS011;1180;51.438;6.978;2023-05-08T07:14:12;5.07;;;4.67;;
2338;SDS011;1180;51.438;6.978;2023-05-08T07:16:37;6.83;;;6.23;;
2338;SDS011;1180;51.438;6.978;2023-05-08T07:19:02;5.50;;;5.00;;
2338;SDS011;1180;51.438;6.978;2023-05-08T07:21:28;7.20;;;6.23;;
2338;SDS011;1180;51.438;6.978;2023-05-08T07:23:53;6.13;;;5.53;;
2338;SDS011;1180;51.438;6.978;2023-05-08T07:26:19;7.50;;;6.90;;
2338;SDS011;1180;51.438;6.978;2023-05-08T07:28:45;6.10;;;5.50;;
2338;SDS011;1180;51.438;6.978;2023-05-08T07:31:11;5.30;;;4.90;;
2338;SDS011;1180;51.438;6.978;2023-05-08T07:33:37;7.47;;;5.00;;
2338;SDS011;1180;51.438;6.978;2023-05-08T07:36:03;5.43;;;4.93;;
2338;SDS011;1180;51.438;6.978;2023-05-08T07:38:28;5.40;;;4.20;;
2338;SDS011;1180;51.438;6.978;2023-05-08T07:40:54;5.23;;;4.50;;
2338;SDS011;1180;51.438;6.978;2023-05-08T07:43:23;6.00;;;4.73;;
2338;SDS011;1180;51.438;6.978;2023-05-08T07:45:49;4.90;;;4.50;;
2338;SDS011;1180;51.438;6.978;2023-05-08T07:48:15;4.70;;;4.27;;
2338;SDS011;1180;51.438;6.978;2023-05-08T07:50:40;4.70;;;4.27;;
2338;SDS011;1180;51.438;6.978;2023-05-08T07:53:06;4.43;;;4.03;;
2338;SDS011;1180;51.438;6.978;2023-05-08T07:55:32;5.90;;;4.77;;
2338;SDS011;1180;51.438;6.978;2023-05-08T07:57:57;5.27;;;4.77;;
2338;SDS011;1180;51.438;6.978;2023-05-08T08:00:23;5.73;;;5.27;;
2338;SDS011;1180;51.438;6.978;2023-05-08T08:02:51;6.40;;;5.80;;
2338;SDS011;1180;51.438;6.978;2023-05-08T08:05:17;6.33;;;5.27;;
2338;SDS011;1180;51.438;6.978;2023-05-08T08:07:42;6.77;;;6.07;;
2338;SDS011;1180;51.438;6.978;2023-05-08T08:10:08;6.90;;;6.20;;
2338;SDS011;1180;51.438;6.978;2023-05-08T08:12:34;5.80;;;5.20;;
2338;SDS011;1180;51.438;6.978;2023-05-08T08:14:59;7.30;;;6.70;;
2338;SDS011;1180;51.438;6.978;2023-05-08T08:17:25;7.53;;;5.30;;
2338;SDS011;1180;51.438;6.978;2023-05-08T08:19:50;6.80;;;5.20;;
2338;SDS011;1180;51.438;6.978;2023-05-08T08:22:15;6.10;;;5.60;;
2338;SDS011;1180;51.438;6.978;2023-05-08T08:24:41;8.17;;;5.67;;
2338;SDS011;1180;51.438;6.978;2023-05-08T08:27:06;6.70;;;6.10;;
2338;SDS011;1180;51.438;6.978;2023-05-08T08:29:32;7.93;;;6.67;;
2338;SDS011;1180;51.438;6.978;2023-05-08T08:31:57;6.50;;;5.90;;
2338;SDS011;1180;51.438;6.978;2023-05-08T08:34:24;5.53;;;5.03;;
2338;SDS011;1180;51.438;6.978;2023-05-08T08:36:50;5.73;;;5.17;;
2338;SDS011;1180;51.438;6.978;2023-05-08T08:39:15;9.17;;;5.90;;
2338;SDS011;1180;51.438;6.978;2023-05-08T08:41:41;6.13;;;5.57;;
2338;SDS011;1180;51.438;6.978;2023-05-08T08:44:06;5.20;;;4.80;;
2338;SDS011;1180;51.438;6.978;2023-05-08T08:46:32;7.37;;;4.47;;
2338;SDS011;1180;51.438;6.978;2023-05-08T08:48:58;5.00;;;4.50;;
2338;SDS011;1180;51.438;6.978;2023-05-08T08:51:31;4.80;;;4.37;;
2338;SDS011;1180;51.438;6.978;2023-05-08T08:56:29;4.73;;;4.33;;
2338;SDS011;1180;51.438;6.978;2023-05-08T08:58:57;3.90;;;3.60;;
2338;SDS011;1180;51.438;6.978;2023-05-08T09:01:24;4.00;;;3.53;;
2338;SDS011;1180;51.438;6.978;2023-05-08T09:03:50;5.57;;;4.93;;
2338;SDS011;1180;51.438;6.978;2023-05-08T09:06:17;4.87;;;4.50;;
2338;SDS011;1180;51.438;6.978;2023-05-08T09:08:43;4.67;;;4.27;;
2338;SDS011;1180;51.438;6.978;2023-05-08T09:11:09;4.13;;;3.70;;
2338;SDS011;1180;51.438;6.978;2023-05-08T09:13:35;4.60;;;4.20;;
2338;SDS011;1180;51.438;6.978;2023-05-08T09:16:00;3.67;;;3.47;;
2338;SDS011;1180;51.438;6.978;2023-05-08T09:18:26;4.10;;;3.13;;
2338;SDS011;1180;51.438;6.978;2023-05-08T09:20:52;4.00;;;3.70;;
2338;SDS011;1180;51.438;6.978;2023-05-08T09:23:17;3.27;;;2.97;;
2338;SDS011;1180;51.438;6.978;2023-05-08T09:25:44;3.67;;;2.90;;
2338;SDS011;1180;51.438;6.978;2023-05-08T09:28:19;3.10;;;2.90;;
2338;SDS011;1180;51.438;6.978;2023-05-08T09:30:50;3.50;;;3.20;;
2338;SDS011;1180;51.438;6.978;2023-05-08T09:33:26;3.40;;;3.10;;
2338;SDS011;1180;51.438;6.978;2023-05-08T09:35:53;3.20;;;3.00;;
2338;SDS011;1180;51.438;6.978;2023-05-08T09:41:14;2.80;;;2.60;;
2338;SDS011;1180;51.438;6.978;2023-05-08T09:43:43;2.70;;;2.50;;
2338;SDS011;1180;51.438;6.978;2023-05-08T09:46:19;3.00;;;2.80;;
2338;SDS011;1180;51.438;6.978;2023-05-08T09:48:46;4.13;;;2.47;;
2338;SDS011;1180;51.438;6.978;2023-05-08T09:51:12;3.40;;;3.20;;
2338;SDS011;1180;51.438;6.978;2023-05-08T09:53:37;2.90;;;2.70;;
2338;SDS011;1180;51.438;6.978;2023-05-08T09:56:03;2.30;;;2.20;;
2338;SDS011;1180;51.438;6.978;2023-05-08T10:01:04;2.50;;;2.30;;
2338;SDS011;1180;51.438;6.978;2023-05-08T10:03:46;2.80;;;2.53;;
2338;SDS011;1180;51.438;6.978;2023-05-08T10:06:14;2.60;;;2.40;;
2338;SDS011;1180;51.438;6.978;2023-05-08T10:08:40;3.00;;;2.70;;
2338;SDS011;1180;51.438;6.978;2023-05-08T10:11:12;2.63;;;2.43;;
2338;SDS011;1180;51.438;6.978;2023-05-08T10:13:39;2.90;;;2.70;;
2338;SDS011;1180;51.438;6.978;2023-05-08T10:16:04;4.50;;;3.37;;
2338;SDS011;1180;51.438;6.978;2023-05-08T10:18:31;4.17;;;2.87;;
2338;SDS011;1180;51.438;6.978;2023-05-08T10:21:01;5.30;;;2.80;;
2338;SDS011;1180;51.438;6.978;2023-05-08T10:23:31;3.23;;;2.93;;
2338;SDS011;1180;51.438;6.978;2023-05-08T10:25:59;2.67;;;2.47;;
2338;SDS011;1180;51.438;6.978;2023-05-08T10:31:33;3.90;;;3.60;;
2338;SDS011;1180;51.438;6.978;2023-05-08T10:34:00;3.77;;;3.40;;
2338;SDS011;1180;51.438;6.978;2023-05-08T10:36:27;4.70;;;3.67;;
2338;SDS011;1180;51.438;6.978;2023-05-08T10:38:54;4.70;;;3.60;;
2338;SDS011;1180;51.438;6.978;2023-05-08T10:41:21;3.87;;;3.57;;
2338;SDS011;1180;51.438;6.978;2023-05-08T10:43:47;3.80;;;3.50;;
2338;SDS011;1180;51.438;6.978;2023-05-08T10:49:08;4.77;;;4.37;;
2338;SDS011;1180;51.438;6.978;2023-05-08T10:51:46;3.67;;;3.37;;
2338;SDS011;1180;51.438;6.978;2023-05-08T10:57:19;3.90;;;3.60;;
2338;SDS011;1180;51.438;6.978;2023-05-08T10:59:45;3.63;;;3.17;;
2338;SDS011;1180;51.438;6.978;2023-05-08T11:02:11;3.83;;;3.53;;
2338;SDS011;1180;51.438;6.978;2023-05-08T11:04:37;3.83;;;3.20;;
2338;SDS011;1180;51.438;6.978;2023-05-08T11:07:03;3.33;;;3.03;;
2338;SDS011;1180;51.438;6.978;2023-05-08T11:12:07;3.63;;;3.33;;
2338;SDS011;1180;51.438;6.978;2023-05-08T11:15:07;3.60;;;3.30;;
2338;SDS011;1180;51.438;6.978;2023-05-08T11:17:34;3.30;;;3.10;;
2338;SDS011;1180;51.438;6.978;2023-05-08T11:20:00;3.77;;;3.47;;
2338;SDS011;1180;51.438;6.978;2023-05-08T11:22:29;4.53;;;3.27;;
2338;SDS011;1180;51.438;6.978;2023-05-08T11:24:59;3.63;;;3.27;;
2338;SDS011;1180;51.438;6.978;2023-05-08T11:38:23;4.37;;;4.07;;
2338;SDS011;1180;51.438;6.978;2023-05-08T11:46:00;3.63;;;3.33;;
2338;SDS011;1180;51.438;6.978;2023-05-08T11:48:28;3.27;;;3.00;;
2338;SDS011;1180;51.438;6.978;2023-05-08T11:50:58;5.40;;;3.27;;
2338;SDS011;1180;51.438;6.978;2023-05-08T11:53:25;3.80;;;3.50;;
2338;SDS011;1180;51.438;6.978;2023-05-08T11:55:51;4.30;;;3.37;;
2338;SDS011;1180;51.438;6.978;2023-05-08T11:58:17;4.63;;;3.63;;
2338;SDS011;1180;51.438;6.978;2023-05-08T12:00:43;2.70;;;2.47;;
2338;SDS011;1180;51.438;6.978;2023-05-08T12:03:14;3.83;;;3.43;;
2338;SDS011;1180;51.438;6.978;2023-05-08T12:05:41;4.37;;;3.10;;
2338;SDS011;1180;51.438;6.978;2023-05-08T12:08:08;3.50;;;3.07;;
2338;SDS011;1180;51.438;6.978;2023-05-08T12:13:19;3.50;;;3.30;;
2338;SDS011;1180;51.438;6.978;2023-05-08T12:15:50;4.10;;;3.10;;
2338;SDS011;1180;51.438;6.978;2023-05-08T12:18:21;4.50;;;3.40;;
2338;SDS011;1180;51.438;6.978;2023-05-08T12:20:52;2.87;;;2.63;;
2338;SDS011;1180;51.438;6.978;2023-05-08T12:23:21;3.10;;;2.83;;
2338;SDS011;1180;51.438;6.978;2023-05-08T12:25:52;3.43;;;2.70;;
2338;SDS011;1180;51.438;6.978;2023-05-08T12:28:18;2.80;;;2.60;;
2338;SDS011;1180;51.438;6.978;2023-05-08T12:30:44;2.93;;;2.73;;
2338;SDS011;1180;51.438;6.978;2023-05-08T12:33:10;2.83;;;2.50;;
2338;SDS011;1180;51.438;6.978;2023-05-08T12:35:39;3.17;;;2.87;;
2338;SDS011;1180;51.438;6.978;2023-05-08T12:38:06;2.80;;;2.60;;
2338;SDS011;1180;51.438;6.978;2023-05-08T12:40:33;3.53;;;2.67;;
2338;SDS011;1180;51.438;6.978;2023-05-08T12:43:00;3.40;;;3.20;;
2338;SDS011;1180;51.438;6.978;2023-05-08T12:45:27;3.10;;;2.90;;
2338;SDS011;1180;51.438;6.978;2023-05-08T12:48:02;3.07;;;2.87;;
2338;SDS011;1180;51.438;6.978;2023-05-08T12:50:33;4.10;;;3.00;;
2338;SDS011;1180;51.438;6.978;2023-05-08T12:53:00;3.10;;;2.83;;
2338;SDS011;1180;51.438;6.978;2023-05-08T12:55:28;3.03;;;2.80;;
2338;SDS011;1180;51.438;6.978;2023-05-08T12:58:06;3.17;;;2.97;;
2338;SDS011;1180;51.438;6.978;2023-05-08T13:03:07;3.27;;;3.00;;
2338;SDS011;1180;51.438;6.978;2023-05-08T13:05:34;3.10;;;2.80;;
2338;SDS011;1180;51.438;6.978;2023-05-08T13:08:01;3.50;;;2.87;;
2338;SDS011;1180;51.438;6.978;2023-05-08T13:13:11;2.80;;;2.60;;
2338;SDS011;1180;51.438;6.978;2023-05-08T13:15:38;2.80;;;2.60;;
2338;SDS011;1180;51.438;6.978;2023-05-08T13:18:04;2.60;;;2.40;;
2338;SDS011;1180;51.438;6.978;2023-05-08T13:20:32;2.83;;;2.63;;
2338;SDS011;1180;51.438;6.978;2023-05-08T13:22:59;3.20;;;3.00;;
2338;SDS011;1180;51.438;6.978;2023-05-08T13:25:24;3.80;;;3.20;;
2338;SDS011;1180;51.438;6.978;2023-05-08T13:27:50;4.77;;;2.60;;
2338;SDS011;1180;51.438;6.978;2023-05-08T13:30:16;2.90;;;2.23;;
2338;SDS011;1180;51.438;6.978;2023-05-08T13:32:42;2.97;;;2.77;;
2338;SDS011;1180;51.438;6.978;2023-05-08T13:35:08;3.80;;;2.83;;
2338;SDS011;1180;51.438;6.978;2023-05-08T13:37:34;3.17;;;2.90;;
2338;SDS011;1180;51.438;6.978;2023-05-08T13:40:00;3.07;;;2.80;;
2338;SDS011;1180;51.438;6.978;2023-05-08T13:42:26;2.90;;;2.60;;
2338;SDS011;1180;51.438;6.978;2023-05-08T13:44:51;3.83;;;3.53;;
2338;SDS011;1180;51.438;6.978;2023-05-08T13:47:17;2.57;;;2.37;;
2338;SDS011;1180;51.438;6.978;2023-05-08T13:49:43;3.47;;;3.07;;
2338;SDS011;1180;51.438;6.978;2023-05-08T13:52:11;2.70;;;2.50;;
2338;SDS011;1180;51.438;6.978;2023-05-08T13:54:36;2.70;;;2.50;;
2338;SDS011;1180;51.438;6.978;2023-05-08T13:57:02;3.47;;;3.17;;
2338;SDS011;1180;51.438;6.978;2023-05-08T13:59:27;3.03;;;2.77;;
2338;SDS011;1180;51.438;6.978;2023-05-08T14:01:55;3.03;;;2.73;;
2338;SDS011;1180;51.438;6.978;2023-05-08T14:04:20;2.77;;;2.57;;
2338;SDS011;1180;51.438;6.978;2023-05-08T14:06:45;3.00;;;2.80;;
2338;SDS011;1180;51.438;6.978;2023-05-08T14:09:11;3.57;;;3.27;;
2338;SDS011;1180;51.438;6.978;2023-05-08T14:11:36;3.13;;;2.93;;
2338;SDS011;1180;51.438;6.978;2023-05-08T14:14:01;3.53;;;2.67;;
2338;SDS011;1180;51.438;6.978;2023-05-08T14:16:27;5.43;;;3.30;;
2338;SDS011;1180;51.438;6.978;2023-05-08T14:18:52;2.67;;;2.47;;
2338;SDS011;1180;51.438;6.978;2023-05-08T14:21:18;3.50;;;2.60;;
2338;SDS011;1180;51.438;6.978;2023-05-08T14:23:43;3.30;;;3.00;;
2338;SDS011;1180;51.438;6.978;2023-05-08T14:26:09;3.70;;;3.20;;
2338;SDS011;1180;51.438;6.978;2023-05-08T14:28:34;4.03;;;3.57;;
2338;SDS011;1180;51.438;6.978;2023-05-08T14:30:59;3.53;;;3.23;;
2338;SDS011;1180;51.438;6.978;2023-05-08T14:33:25;4.93;;;3.20;;
2338;SDS011;1180;51.438;6.978;2023-05-08T14:35:50;3.20;;;2.67;;
2338;SDS011;1180;51.438;6.978;2023-05-08T14:38:15;2.90;;;2.70;;
2338;SDS011;1180;51.438;6.978;2023-05-08T14:40:41;3.30;;;3.00;;
2338;SDS011;1180;51.438;6.978;2023-05-08T14:43:06;3.30;;;2.97;;
2338;SDS011;1180;51.438;6.978;2023-05-08T14:45:32;2.47;;;2.13;;
2338;SDS011;1180;51.438;6.978;2023-05-08T14:47:57;2.90;;;2.70;;
2338;SDS011;1180;51.438;6.978;2023-05-08T14:50:22;3.70;;;3.10;;
2338;SDS011;1180;51.438;6.978;2023-05-08T14:52:48;3.00;;;2.73;;
2338;SDS011;1180;51.438;6.978;2023-05-08T14:55:14;2.73;;;2.53;;
2338;SDS011;1180;51.438;6.978;2023-05-08T14:57:48;3.60;;;2.87;;
2338;SDS011;1180;51.438;6.978;2023-05-08T15:00:14;3.70;;;3.30;;
2338;SDS011;1180;51.438;6.978;2023-05-08T15:02:41;3.67;;;3.30;;
2338;SDS011;1180;51.438;6.978;2023-05-08T15:05:07;3.67;;;2.80;;
2338;SDS011;1180;51.438;6.978;2023-05-08T15:07:33;3.50;;;3.03;;
2338;SDS011;1180;51.438;6.978;2023-05-08T15:09:59;3.00;;;2.80;;
2338;SDS011;1180;51.438;6.978;2023-05-08T15:12:24;3.73;;;3.43;;
2338;SDS011;1180;51.438;6.978;2023-05-08T15:14:50;4.60;;;3.60;;
2338;SDS011;1180;51.438;6.978;2023-05-08T15:17:15;3.30;;;3.00;;
2338;SDS011;1180;51.438;6.978;2023-05-08T15:19:41;3.40;;;3.10;;
2338;SDS011;1180;51.438;6.978;2023-05-08T15:22:07;3.13;;;2.93;;
2338;SDS011;1180;51.438;6.978;2023-05-08T15:24:33;3.70;;;3.40;;
2338;SDS011;1180;51.438;6.978;2023-05-08T15:26:59;3.50;;;2.97;;
2338;SDS011;1180;51.438;6.978;2023-05-08T15:29:24;2.70;;;2.50;;
2338;SDS011;1180;51.438;6.978;2023-05-08T15:31:51;3.83;;;3.30;;
2338;SDS011;1180;51.438;6.978;2023-05-08T15:34:16;3.83;;;3.40;;
2338;SDS011;1180;51.438;6.978;2023-05-08T15:36:42;3.50;;;3.30;;
2338;SDS011;1180;51.438;6.978;2023-05-08T15:39:08;3.33;;;3.03;;
2338;SDS011;1180;51.438;6.978;2023-05-08T15:41:34;5.83;;;4.20;;
2338;SDS011;1180;51.438;6.978;2023-05-08T15:44:00;3.90;;;3.60;;
2338;SDS011;1180;51.438;6.978;2023-05-08T15:46:26;3.73;;;2.63;;
2338;SDS011;1180;51.438;6.978;2023-05-08T15:48:52;2.93;;;2.63;;
2338;SDS011;1180;51.438;6.978;2023-05-08T15:51:18;2.97;;;2.77;;
2338;SDS011;1180;51.438;6.978;2023-05-08T15:53:43;3.17;;;2.83;;
2338;SDS011;1180;51.438;6.978;2023-05-08T15:56:09;2.50;;;2.30;;
2338;SDS011;1180;51.438;6.978;2023-05-08T15:58:34;2.60;;;2.40;;
2338;SDS011;1180;51.438;6.978;2023-05-08T16:01:04;2.50;;;2.30;;
2338;SDS011;1180;51.438;6.978;2023-05-08T16:03:30;3.10;;;2.90;;
2338;SDS011;1180;51.438;6.978;2023-05-08T16:05:56;2.83;;;2.63;;
2338;SDS011;1180;51.438;6.978;2023-05-08T16:08:21;3.40;;;2.77;;
2338;SDS011;1180;51.438;6.978;2023-05-08T16:10:47;3.10;;;2.90;;
2338;SDS011;1180;51.438;6.978;2023-05-08T16:13:12;4.23;;;3.67;;
2338;SDS011;1180;51.438;6.978;2023-05-08T16:15:38;3.30;;;2.97;;
2338;SDS011;1180;51.438;6.978;2023-05-08T16:18:04;2.90;;;2.70;;
2338;SDS011;1180;51.438;6.978;2023-05-08T16:20:30;3.20;;;2.90;;